Strona główna
METAR-TAF:

METAR-TAF

Lotnisko :

Baza lotnicza Volkel

Uden, Holandia

Szerokość geograficzna: 51-39N, Długość geograficzna: 005-42E, wysokość: 22 m

Aktualna obserwacja pogody

Raport powstał 24 minut temu, godzina 18:25 UTC
Wiatr 3 kt od północny wschód
Temperatura 21°C
Wilgotność 60%
Ciśnienie 1013 hPa
Widzialność 10 km lub więcej
Przerywane chmury na wysokości 19000 ft
Zachmurzenie całkowite na wysokości 31000 ft

METAR: EHVK 171825Z AUTO 05003KT 9999 BKN190 OVC310 21/13 Q1013 BLU

czas: 20:49 (18:49 UTC)

Prognoza

Raport powstał 2 godziny i 43 minut temu, godzina 16:06 UTC
Prognoza ważna od 17 godzina 17 UTC do 18 godzina 05 UTC
Wiatr 2 kt z kierunków zmiennych
Widzialność 10 km lub więcej
Brak chmur poniżej 1500 m i brak chmur cumulonimbus
Stopniowe zmiany
od 17 godzina 23 UTC do 18 godzina 02 UTC
Wiatr 4 kt od południowy wschód

TAF: EHVK 171606Z 1717/1805 VRB02KT CAVOK BECMG 1723/1802 14004KT

Obserwacja i prognoza pogody dla ponad 4000 lotnisk (raport METAR i TAF).

Dostępne stacje oznaczono żółtymi i czerwonymi punktami na mapie.

Najedź kursorem aby zobaczyć nazwę stacji.

Kliknij aby zobaczyć obserwacje i prognozy pogody.

Aby zmienić mapę: kliknij na zielony przycisk z czarnym krzyżykiem, aby powiększyć; na zielony przycisk z myślnikiem, aby pomniejszyć; na zielone strzałki, aby przejść do map sąsiednich.


METAR-TAF: